sensor_id;sensor_type;location;lat;lon;timestamp;pressure;altitude;pressure_sealevel;temperature;humidity
70304;BME280;57712;48.752;11.348;2022-07-04T00:00:12;97609.16;;;19.52;66.88
70304;BME280;57712;48.752;11.348;2022-07-04T00:02:41;97628.69;;;19.43;67.22
70304;BME280;57712;48.752;11.348;2022-07-04T00:05:09;97621.38;;;19.31;68.18
70304;BME280;57712;48.752;11.348;2022-07-04T00:07:41;97630.78;;;19.48;67.75
70304;BME280;57712;48.752;11.348;2022-07-04T00:10:10;97623.47;;;19.36;67.21
70304;BME280;57712;48.752;11.348;2022-07-04T00:12:37;97626.72;;;19.58;68.30
70304;BME280;57712;48.752;11.348;2022-07-04T00:15:05;97617.06;;;19.69;68.51
70304;BME280;57712;48.752;11.348;2022-07-04T00:17:32;97617.81;;;19.69;67.83
70304;BME280;57712;48.752;11.348;2022-07-04T00:19:59;97619.94;;;19.74;66.97
70304;BME280;57712;48.752;11.348;2022-07-04T00:22:26;97625.09;;;19.67;68.59
70304;BME280;57712;48.752;11.348;2022-07-04T00:24:52;97636.00;;;19.55;66.80
70304;BME280;57712;48.752;11.348;2022-07-04T00:27:19;97642.03;;;19.54;66.48
70304;BME280;57712;48.752;11.348;2022-07-04T00:29:45;97640.00;;;19.54;66.86
70304;BME280;57712;48.752;11.348;2022-07-04T00:32:12;97632.78;;;19.48;67.43
70304;BME280;57712;48.752;11.348;2022-07-04T00:34:38;97635.06;;;19.58;67.84
70304;BME280;57712;48.752;11.348;2022-07-04T00:37:05;97639.47;;;19.65;69.88
70304;BME280;57712;48.752;11.348;2022-07-04T00:39:32;97632.59;;;19.60;69.91
70304;BME280;57712;48.752;11.348;2022-07-04T00:42:05;97620.03;;;19.65;67.98
70304;BME280;57712;48.752;11.348;2022-07-04T00:44:32;97612.06;;;19.58;69.03
70304;BME280;57712;48.752;11.348;2022-07-04T00:47:04;97601.47;;;19.47;68.28
70304;BME280;57712;48.752;11.348;2022-07-04T00:49:31;97598.63;;;19.56;67.53
70304;BME280;57712;48.752;11.348;2022-07-04T00:51:58;97606.31;;;19.62;66.64
70304;BME280;57712;48.752;11.348;2022-07-04T00:54:28;97605.72;;;19.57;70.22
70304;BME280;57712;48.752;11.348;2022-07-04T00:56:56;97600.78;;;19.62;68.40
70304;BME280;57712;48.752;11.348;2022-07-04T00:59:23;97611.97;;;19.67;67.79
70304;BME280;57712;48.752;11.348;2022-07-04T01:01:50;97607.84;;;19.63;69.20
70304;BME280;57712;48.752;11.348;2022-07-04T01:04:17;97607.09;;;19.62;68.36
70304;BME280;57712;48.752;11.348;2022-07-04T01:06:46;97604.78;;;19.60;67.08
70304;BME280;57712;48.752;11.348;2022-07-04T01:09:13;97603.13;;;19.54;69.41
70304;BME280;57712;48.752;11.348;2022-07-04T01:11:40;97591.59;;;19.46;69.12
70304;BME280;57712;48.752;11.348;2022-07-04T01:14:07;97586.16;;;19.52;68.55
70304;BME280;57712;48.752;11.348;2022-07-04T01:16:34;97584.91;;;19.53;68.36
70304;BME280;57712;48.752;11.348;2022-07-04T01:19:01;97578.25;;;19.36;70.35
70304;BME280;57712;48.752;11.348;2022-07-04T01:21:27;97587.06;;;19.34;71.19
70304;BME280;57712;48.752;11.348;2022-07-04T01:23:54;97580.56;;;19.37;70.85
70304;BME280;57712;48.752;11.348;2022-07-04T01:26:20;97573.94;;;19.20;72.44
70304;BME280;57712;48.752;11.348;2022-07-04T01:28:48;97570.19;;;19.23;71.00
70304;BME280;57712;48.752;11.348;2022-07-04T01:31:15;97572.69;;;19.21;71.27
70304;BME280;57712;48.752;11.348;2022-07-04T01:33:42;97572.94;;;19.08;72.40
70304;BME280;57712;48.752;11.348;2022-07-04T01:36:08;97575.16;;;19.19;71.24
70304;BME280;57712;48.752;11.348;2022-07-04T01:38:35;97582.38;;;19.01;72.99
70304;BME280;57712;48.752;11.348;2022-07-04T01:41:01;97578.31;;;18.88;74.20
70304;BME280;57712;48.752;11.348;2022-07-04T01:43:28;97584.09;;;18.99;74.67
70304;BME280;57712;48.752;11.348;2022-07-04T01:45:54;97587.66;;;18.99;73.23
70304;BME280;57712;48.752;11.348;2022-07-04T01:48:21;97590.53;;;18.81;74.09
70304;BME280;57712;48.752;11.348;2022-07-04T01:50:47;97585.03;;;18.96;74.20
70304;BME280;57712;48.752;11.348;2022-07-04T01:53:14;97595.03;;;19.02;73.46
70304;BME280;57712;48.752;11.348;2022-07-04T01:55:41;97591.00;;;19.03;74.23
70304;BME280;57712;48.752;11.348;2022-07-04T01:58:07;97589.13;;;19.10;72.69
70304;BME280;57712;48.752;11.348;2022-07-04T02:00:33;97587.59;;;19.09;73.31
70304;BME280;57712;48.752;11.348;2022-07-04T02:03:19;97582.31;;;19.11;72.56
70304;BME280;57712;48.752;11.348;2022-07-04T02:05:45;97590.38;;;19.09;72.34
70304;BME280;57712;48.752;11.348;2022-07-04T02:08:12;97582.31;;;19.11;72.68
70304;BME280;57712;48.752;11.348;2022-07-04T02:10:38;97578.00;;;19.10;72.42
70304;BME280;57712;48.752;11.348;2022-07-04T02:13:05;97579.41;;;19.05;72.46
70304;BME280;57712;48.752;11.348;2022-07-04T02:15:33;97587.47;;;19.03;72.89
70304;BME280;57712;48.752;11.348;2022-07-04T02:18:06;97583.72;;;19.06;72.31
70304;BME280;57712;48.752;11.348;2022-07-04T02:20:34;97583.91;;;19.02;72.81
70304;BME280;57712;48.752;11.348;2022-07-04T02:23:02;97580.19;;;18.82;73.85
70304;BME280;57712;48.752;11.348;2022-07-04T02:25:30;97588.34;;;18.85;74.33
70304;BME280;57712;48.752;11.348;2022-07-04T02:27:57;97582.22;;;18.81;73.81
70304;BME280;57712;48.752;11.348;2022-07-04T02:30:24;97578.81;;;18.86;74.76
70304;BME280;57712;48.752;11.348;2022-07-04T02:32:52;97581.16;;;18.79;74.47
70304;BME280;57712;48.752;11.348;2022-07-04T02:35:19;97587.22;;;18.68;75.22
70304;BME280;57712;48.752;11.348;2022-07-04T02:37:45;97596.03;;;18.66;74.23
70304;BME280;57712;48.752;11.348;2022-07-04T02:40:12;97593.13;;;18.52;75.24
70304;BME280;57712;48.752;11.348;2022-07-04T02:42:39;97601.13;;;18.59;74.57
70304;BME280;57712;48.752;11.348;2022-07-04T02:45:06;97594.94;;;18.55;75.46
70304;BME280;57712;48.752;11.348;2022-07-04T02:47:33;97602.97;;;18.53;75.86
70304;BME280;57712;48.752;11.348;2022-07-04T02:50:01;97602.06;;;18.56;75.77
70304;BME280;57712;48.752;11.348;2022-07-04T02:52:29;97606.03;;;18.55;75.33
70304;BME280;57712;48.752;11.348;2022-07-04T02:54:56;97607.75;;;18.52;75.39
70304;BME280;57712;48.752;11.348;2022-07-04T02:57:22;97615.78;;;18.50;75.26
70304;BME280;57712;48.752;11.348;2022-07-04T02:59:49;97632.47;;;18.41;76.05
70304;BME280;57712;48.752;11.348;2022-07-04T03:02:16;97635.41;;;18.37;78.32
70304;BME280;57712;48.752;11.348;2022-07-04T03:04:42;97634.22;;;18.29;78.75
70304;BME280;57712;48.752;11.348;2022-07-04T03:07:09;97636.81;;;18.33;76.31
70304;BME280;57712;48.752;11.348;2022-07-04T03:09:36;97638.53;;;18.21;77.61
70304;BME280;57712;48.752;11.348;2022-07-04T03:12:02;97647.03;;;18.17;77.41
70304;BME280;57712;48.752;11.348;2022-07-04T03:14:29;97649.66;;;18.03;78.06
70304;BME280;57712;48.752;11.348;2022-07-04T03:16:56;97644.09;;;18.21;76.90
70304;BME280;57712;48.752;11.348;2022-07-04T03:19:22;97647.16;;;18.23;77.37
70304;BME280;57712;48.752;11.348;2022-07-04T03:21:49;97649.63;;;18.21;78.23
70304;BME280;57712;48.752;11.348;2022-07-04T03:24:15;97640.25;;;18.18;77.86
70304;BME280;57712;48.752;11.348;2022-07-04T03:26:42;97647.16;;;18.23;77.27
70304;BME280;57712;48.752;11.348;2022-07-04T03:29:08;97663.03;;;18.23;77.12
70304;BME280;57712;48.752;11.348;2022-07-04T03:31:35;97661.94;;;18.29;76.43
70304;BME280;57712;48.752;11.348;2022-07-04T03:34:03;97661.66;;;18.27;76.94
70304;BME280;57712;48.752;11.348;2022-07-04T03:36:29;97661.00;;;18.32;76.76
70304;BME280;57712;48.752;11.348;2022-07-04T03:38:56;97665.94;;;18.37;76.62
70304;BME280;57712;48.752;11.348;2022-07-04T03:41:22;97670.56;;;18.31;77.57
70304;BME280;57712;48.752;11.348;2022-07-04T03:43:49;97678.84;;;18.40;76.78
70304;BME280;57712;48.752;11.348;2022-07-04T03:46:18;97680.56;;;18.38;78.26
70304;BME280;57712;48.752;11.348;2022-07-04T03:48:45;97683.47;;;18.43;77.67
70304;BME280;57712;48.752;11.348;2022-07-04T03:51:12;97689.63;;;18.48;78.68
70304;BME280;57712;48.752;11.348;2022-07-04T03:53:39;97682.19;;;18.54;77.12
70304;BME280;57712;48.752;11.348;2022-07-04T03:56:06;97692.06;;;18.55;78.05
70304;BME280;57712;48.752;11.348;2022-07-04T03:58:32;97695.31;;;18.53;76.23
70304;BME280;57712;48.752;11.348;2022-07-04T04:00:59;97697.00;;;18.60;76.26
70304;BME280;57712;48.752;11.348;2022-07-04T04:03:26;97698.38;;;18.64;78.68
70304;BME280;57712;48.752;11.348;2022-07-04T04:06:11;97695.47;;;18.59;76.00
70304;BME280;57712;48.752;11.348;2022-07-04T04:08:38;97696.69;;;18.67;78.08
70304;BME280;57712;48.752;11.348;2022-07-04T04:11:04;97708.06;;;18.78;76.56
70304;BME280;57712;48.752;11.348;2022-07-04T04:13:31;97718.22;;;18.81;76.14
70304;BME280;57712;48.752;11.348;2022-07-04T04:15:57;97709.88;;;18.81;77.59
70304;BME280;57712;48.752;11.348;2022-07-04T04:18:24;97708.47;;;18.86;75.55
70304;BME280;57712;48.752;11.348;2022-07-04T04:20:50;97718.66;;;18.89;74.87
70304;BME280;57712;48.752;11.348;2022-07-04T04:23:17;97712.50;;;18.85;74.95
70304;BME280;57712;48.752;11.348;2022-07-04T04:25:44;97719.97;;;19.02;75.63
70304;BME280;57712;48.752;11.348;2022-07-04T04:28:10;97722.75;;;19.02;78.13
70304;BME280;57712;48.752;11.348;2022-07-04T04:30:37;97716.44;;;19.02;75.44
70304;BME280;57712;48.752;11.348;2022-07-04T04:33:03;97723.94;;;19.11;76.02
70304;BME280;57712;48.752;11.348;2022-07-04T04:35:30;97738.47;;;19.06;74.88
70304;BME280;57712;48.752;11.348;2022-07-04T04:37:59;97724.13;;;19.07;78.28
70304;BME280;57712;48.752;11.348;2022-07-04T04:40:25;97719.75;;;18.82;75.68
70304;BME280;57712;48.752;11.348;2022-07-04T04:42:52;97726.50;;;18.90;77.04
70304;BME280;57712;48.752;11.348;2022-07-04T04:45:18;97726.50;;;18.90;76.00
70304;BME280;57712;48.752;11.348;2022-07-04T04:47:45;97718.47;;;18.92;76.64
70304;BME280;57712;48.752;11.348;2022-07-04T04:50:12;97713.25;;;18.85;75.97
70304;BME280;57712;48.752;11.348;2022-07-04T04:52:41;97711.38;;;18.91;76.23
70304;BME280;57712;48.752;11.348;2022-07-04T04:55:08;97716.63;;;18.98;76.45
70304;BME280;57712;48.752;11.348;2022-07-04T04:57:34;97714.72;;;19.04;75.99
70304;BME280;57712;48.752;11.348;2022-07-04T05:00:02;97708.25;;;19.08;76.37
70304;BME280;57712;48.752;11.348;2022-07-04T05:02:30;97709.41;;;19.16;76.23
70304;BME280;57712;48.752;11.348;2022-07-04T05:04:57;97693.75;;;19.27;77.22
70304;BME280;57712;48.752;11.348;2022-07-04T05:07:24;97700.69;;;19.32;75.16
70304;BME280;57712;48.752;11.348;2022-07-04T05:09:50;97687.16;;;19.49;74.16
70304;BME280;57712;48.752;11.348;2022-07-04T05:12:17;97692.97;;;19.60;74.84
70304;BME280;57712;48.752;11.348;2022-07-04T05:14:43;97691.25;;;19.77;74.77
70304;BME280;57712;48.752;11.348;2022-07-04T05:17:10;97697.88;;;19.80;74.04
70304;BME280;57712;48.752;11.348;2022-07-04T05:19:37;97704.88;;;19.75;72.95
70304;BME280;57712;48.752;11.348;2022-07-04T05:22:03;97694.16;;;19.83;75.07
70304;BME280;57712;48.752;11.348;2022-07-04T05:24:30;97701.84;;;19.88;72.06
70304;BME280;57712;48.752;11.348;2022-07-04T05:26:57;97705.34;;;19.74;71.82
70304;BME280;57712;48.752;11.348;2022-07-04T05:29:24;97692.84;;;19.93;72.36
70304;BME280;57712;48.752;11.348;2022-07-04T05:31:50;97710.69;;;20.01;72.41
70304;BME280;57712;48.752;11.348;2022-07-04T05:34:17;97724.97;;;19.94;71.48
70304;BME280;57712;48.752;11.348;2022-07-04T05:36:45;97719.31;;;20.03;71.38
70304;BME280;57712;48.752;11.348;2022-07-04T05:39:11;97718.94;;;20.10;72.25
70304;BME280;57712;48.752;11.348;2022-07-04T05:41:38;97727.47;;;19.92;71.53
70304;BME280;57712;48.752;11.348;2022-07-04T05:44:04;97742.78;;;19.87;74.19
70304;BME280;57712;48.752;11.348;2022-07-04T05:46:31;97754.38;;;19.86;73.56
70304;BME280;57712;48.752;11.348;2022-07-04T05:48:58;97768.34;;;19.77;74.32
70304;BME280;57712;48.752;11.348;2022-07-04T05:51:24;97767.84;;;20.02;73.72
70304;BME280;57712;48.752;11.348;2022-07-04T05:53:51;97761.97;;;19.62;75.02
70304;BME280;57712;48.752;11.348;2022-07-04T05:56:18;97770.41;;;19.67;74.03
70304;BME280;57712;48.752;11.348;2022-07-04T05:58:44;97770.09;;;19.89;74.20
70304;BME280;57712;48.752;11.348;2022-07-04T06:01:11;97774.78;;;19.59;74.93
70304;BME280;57712;48.752;11.348;2022-07-04T06:03:37;97779.66;;;19.73;74.65
70304;BME280;57712;48.752;11.348;2022-07-04T06:06:05;97782.53;;;19.79;74.23
70304;BME280;57712;48.752;11.348;2022-07-04T06:08:31;97788.84;;;19.79;74.40
70304;BME280;57712;48.752;11.348;2022-07-04T06:10:58;97783.84;;;19.69;74.87
70304;BME280;57712;48.752;11.348;2022-07-04T06:13:25;97795.50;;;19.82;74.09
70304;BME280;57712;48.752;11.348;2022-07-04T06:15:54;97794.84;;;19.87;74.04
70304;BME280;57712;48.752;11.348;2022-07-04T06:18:21;97788.31;;;19.90;74.08
70304;BME280;57712;48.752;11.348;2022-07-04T06:20:48;97788.69;;;19.83;74.31
70304;BME280;57712;48.752;11.348;2022-07-04T06:23:14;97784.06;;;19.80;74.21
70304;BME280;57712;48.752;11.348;2022-07-04T06:25:41;97791.09;;;19.90;73.37
70304;BME280;57712;48.752;11.348;2022-07-04T06:28:07;97785.59;;;20.05;73.00
70304;BME280;57712;48.752;11.348;2022-07-04T06:30:54;97790.47;;;19.95;73.37
70304;BME280;57712;48.752;11.348;2022-07-04T06:33:21;97790.69;;;20.06;72.97
70304;BME280;57712;48.752;11.348;2022-07-04T06:35:47;97779.69;;;20.27;72.38
70304;BME280;57712;48.752;11.348;2022-07-04T06:38:23;97785.41;;;20.08;72.01
70304;BME280;57712;48.752;11.348;2022-07-04T06:40:50;97795.84;;;20.37;70.83
70304;BME280;57712;48.752;11.348;2022-07-04T06:43:19;97790.91;;;20.56;70.92
70304;BME280;57712;48.752;11.348;2022-07-04T06:45:45;97793.09;;;20.52;70.72
70304;BME280;57712;48.752;11.348;2022-07-04T06:48:12;97797.31;;;20.62;69.92
70304;BME280;57712;48.752;11.348;2022-07-04T06:50:43;97792.16;;;20.85;69.17
70304;BME280;57712;48.752;11.348;2022-07-04T06:53:10;97792.03;;;20.94;68.24
70304;BME280;57712;48.752;11.348;2022-07-04T06:55:37;97784.66;;;21.06;67.58
70304;BME280;57712;48.752;11.348;2022-07-04T06:58:05;97788.47;;;21.08;67.01
70304;BME280;57712;48.752;11.348;2022-07-04T07:00:32;97786.78;;;20.96;66.68
70304;BME280;57712;48.752;11.348;2022-07-04T07:03:00;97792.34;;;20.96;66.32
70304;BME280;57712;48.752;11.348;2022-07-04T07:05:27;97781.66;;;20.94;66.17
70304;BME280;57712;48.752;11.348;2022-07-04T07:08:14;97786.69;;;21.25;66.34
70304;BME280;57712;48.752;11.348;2022-07-04T07:10:41;97790.63;;;21.48;66.51
70304;BME280;57712;48.752;11.348;2022-07-04T07:13:07;97797.97;;;21.16;66.42
70304;BME280;57712;48.752;11.348;2022-07-04T07:15:34;97802.88;;;20.92;66.82
70304;BME280;57712;48.752;11.348;2022-07-04T07:18:04;97799.63;;;20.79;67.22
70304;BME280;57712;48.752;11.348;2022-07-04T07:20:31;97797.91;;;20.81;66.46
70304;BME280;57712;48.752;11.348;2022-07-04T07:22:58;97806.38;;;20.87;66.48
70304;BME280;57712;48.752;11.348;2022-07-04T07:25:24;97805.66;;;20.62;66.26
70304;BME280;57712;48.752;11.348;2022-07-04T07:27:51;97799.44;;;20.97;66.15
70304;BME280;57712;48.752;11.348;2022-07-04T07:30:18;97785.00;;;21.13;66.20
70304;BME280;57712;48.752;11.348;2022-07-04T07:32:44;97790.97;;;20.91;65.03
70304;BME280;57712;48.752;11.348;2022-07-04T07:35:11;97790.41;;;21.02;65.99
70304;BME280;57712;48.752;11.348;2022-07-04T07:37:38;97779.53;;;21.04;65.59
70304;BME280;57712;48.752;11.348;2022-07-04T07:40:05;97781.47;;;20.98;65.45
70304;BME280;57712;48.752;11.348;2022-07-04T07:42:32;97784.59;;;21.35;65.04
70304;BME280;57712;48.752;11.348;2022-07-04T07:45:00;97781.94;;;21.11;64.96
70304;BME280;57712;48.752;11.348;2022-07-04T07:47:26;97791.69;;;21.36;65.26
70304;BME280;57712;48.752;11.348;2022-07-04T07:49:53;97792.81;;;21.79;63.65
70304;BME280;57712;48.752;11.348;2022-07-04T07:52:20;97799.31;;;21.71;63.94
70304;BME280;57712;48.752;11.348;2022-07-04T07:54:52;97804.19;;;21.41;63.37
70304;BME280;57712;48.752;11.348;2022-07-04T07:57:27;97805.34;;;21.49;62.58
70304;BME280;57712;48.752;11.348;2022-07-04T07:59:54;97803.22;;;21.44;62.23
70304;BME280;57712;48.752;11.348;2022-07-04T08:02:21;97801.78;;;21.48;63.12
70304;BME280;57712;48.752;11.348;2022-07-04T08:05:09;97794.13;;;21.64;62.74
70304;BME280;57712;48.752;11.348;2022-07-04T08:07:36;97791.16;;;21.32;62.21
70304;BME280;57712;48.752;11.348;2022-07-04T08:10:03;97782.50;;;21.85;61.92
70304;BME280;57712;48.752;11.348;2022-07-04T08:12:30;97785.84;;;21.69;61.44
70304;BME280;57712;48.752;11.348;2022-07-04T08:14:57;97766.78;;;22.29;60.56
70304;BME280;57712;48.752;11.348;2022-07-04T08:17:31;97783.59;;;22.34;58.05
70304;BME280;57712;48.752;11.348;2022-07-04T08:19:58;97780.59;;;22.64;58.87
70304;BME280;57712;48.752;11.348;2022-07-04T08:22:25;97784.72;;;21.81;58.57
70304;BME280;57712;48.752;11.348;2022-07-04T08:24:52;97780.84;;;22.14;56.94
70304;BME280;57712;48.752;11.348;2022-07-04T08:27:19;97773.53;;;22.68;56.37
70304;BME280;57712;48.752;11.348;2022-07-04T08:29:46;97769.38;;;22.58;57.84
70304;BME280;57712;48.752;11.348;2022-07-04T08:32:14;97763.31;;;23.23;57.90
70304;BME280;57712;48.752;11.348;2022-07-04T08:34:40;97763.53;;;24.10;57.04
70304;BME280;57712;48.752;11.348;2022-07-04T08:37:09;97760.81;;;23.68;54.66
70304;BME280;57712;48.752;11.348;2022-07-04T08:39:35;97763.47;;;23.88;55.31
70304;BME280;57712;48.752;11.348;2022-07-04T08:42:06;97763.44;;;23.82;55.24
70304;BME280;57712;48.752;11.348;2022-07-04T08:44:39;97756.16;;;24.13;54.69
70304;BME280;57712;48.752;11.348;2022-07-04T08:47:09;97755.44;;;24.24;54.04
70304;BME280;57712;48.752;11.348;2022-07-04T08:49:44;97746.34;;;24.51;53.64
70304;BME280;57712;48.752;11.348;2022-07-04T08:52:14;97745.84;;;24.69;54.10
70304;BME280;57712;48.752;11.348;2022-07-04T08:54:45;97747.91;;;25.08;54.30
70304;BME280;57712;48.752;11.348;2022-07-04T08:57:30;97753.25;;;24.89;52.32
70304;BME280;57712;48.752;11.348;2022-07-04T09:00:15;97758.34;;;25.36;53.12
70304;BME280;57712;48.752;11.348;2022-07-04T09:02:42;97745.25;;;25.66;51.14
70304;BME280;57712;48.752;11.348;2022-07-04T09:05:11;97752.22;;;25.20;50.75
70304;BME280;57712;48.752;11.348;2022-07-04T09:07:38;97754.03;;;25.12;52.60
70304;BME280;57712;48.752;11.348;2022-07-04T09:10:05;97751.44;;;24.69;51.43
70304;BME280;57712;48.752;11.348;2022-07-04T09:12:32;97758.59;;;25.38;51.64
70304;BME280;57712;48.752;11.348;2022-07-04T09:15:19;97758.59;;;25.26;53.23
70304;BME280;57712;48.752;11.348;2022-07-04T09:17:46;97753.16;;;25.68;50.93
70304;BME280;57712;48.752;11.348;2022-07-04T09:22:44;97767.13;;;25.84;51.44
70304;BME280;57712;48.752;11.348;2022-07-04T09:25:12;97778.72;;;25.30;51.16
70304;BME280;57712;48.752;11.348;2022-07-04T09:27:50;97779.50;;;25.37;52.43
70304;BME280;57712;48.752;11.348;2022-07-04T09:30:19;97785.34;;;24.66;52.57
70304;BME280;57712;48.752;11.348;2022-07-04T09:32:53;97782.78;;;24.90;52.71
70304;BME280;57712;48.752;11.348;2022-07-04T09:35:30;97783.59;;;25.36;51.93
70304;BME280;57712;48.752;11.348;2022-07-04T09:37:59;97787.69;;;25.23;51.84
70304;BME280;57712;48.752;11.348;2022-07-04T09:40:34;97778.00;;;25.02;52.32
70304;BME280;57712;48.752;11.348;2022-07-04T09:43:21;97781.50;;;24.63;51.99
70304;BME280;57712;48.752;11.348;2022-07-04T09:45:58;97787.97;;;24.15;52.14
70304;BME280;57712;48.752;11.348;2022-07-04T09:48:26;97790.72;;;24.92;52.23
70304;BME280;57712;48.752;11.348;2022-07-04T09:50:52;97776.22;;;26.13;50.71
70304;BME280;57712;48.752;11.348;2022-07-04T09:53:27;97778.41;;;27.14;47.74
70304;BME280;57712;48.752;11.348;2022-07-04T09:55:53;97771.84;;;27.06;46.49
70304;BME280;57712;48.752;11.348;2022-07-04T09:58:20;97772.47;;;26.52;47.10
70304;BME280;57712;48.752;11.348;2022-07-04T10:00:46;97776.97;;;27.01;44.54
70304;BME280;57712;48.752;11.348;2022-07-04T10:03:17;97779.63;;;27.18;45.91
70304;BME280;57712;48.752;11.348;2022-07-04T10:08:29;97749.72;;;28.32;46.08
70304;BME280;57712;48.752;11.348;2022-07-04T10:10:59;97739.28;;;28.96;41.75
70304;BME280;57712;48.752;11.348;2022-07-04T10:13:32;97740.09;;;27.35;42.60
70304;BME280;57712;48.752;11.348;2022-07-04T10:15:59;97732.19;;;28.20;40.46
70304;BME280;57712;48.752;11.348;2022-07-04T10:18:27;97742.59;;;29.14;39.56
70304;BME280;57712;48.752;11.348;2022-07-04T10:20:55;97745.66;;;29.42;39.86
70304;BME280;57712;48.752;11.348;2022-07-04T10:23:23;97748.56;;;30.63;36.84
70304;BME280;57712;48.752;11.348;2022-07-04T10:25:52;97756.28;;;30.63;37.15
70304;BME280;57712;48.752;11.348;2022-07-04T10:28:20;97774.69;;;27.54;41.11
70304;BME280;57712;48.752;11.348;2022-07-04T10:30:53;97758.16;;;27.94;39.58
70304;BME280;57712;48.752;11.348;2022-07-04T10:33:26;97759.63;;;28.19;40.35
70304;BME280;57712;48.752;11.348;2022-07-04T10:35:57;97758.69;;;28.11;39.79
70304;BME280;57712;48.752;11.348;2022-07-04T10:38:31;97767.97;;;28.82;40.00
70304;BME280;57712;48.752;11.348;2022-07-04T10:41:03;97769.94;;;28.87;39.45
70304;BME280;57712;48.752;11.348;2022-07-04T10:54:14;97765.47;;;28.78;42.79
70304;BME280;57712;48.752;11.348;2022-07-04T10:56:44;97764.59;;;27.89;43.44
70304;BME280;57712;48.752;11.348;2022-07-04T10:59:13;97764.63;;;28.64;40.91
70304;BME280;57712;48.752;11.348;2022-07-04T11:01:49;97763.59;;;28.49;41.77
70304;BME280;57712;48.752;11.348;2022-07-04T11:04:53;97759.78;;;28.27;40.96
70304;BME280;57712;48.752;11.348;2022-07-04T11:07:22;97761.75;;;28.70;42.00
70304;BME280;57712;48.752;11.348;2022-07-04T11:17:51;97749.28;;;29.56;39.07
70304;BME280;57712;48.752;11.348;2022-07-04T11:20:19;97754.72;;;28.77;42.17
70304;BME280;57712;48.752;11.348;2022-07-04T11:22:46;97742.09;;;29.28;38.29
70304;BME280;57712;48.752;11.348;2022-07-04T11:25:13;97739.69;;;29.99;38.63
70304;BME280;57712;48.752;11.348;2022-07-04T11:27:40;97738.97;;;29.72;42.31
70304;BME280;57712;48.752;11.348;2022-07-04T11:30:09;97734.47;;;29.23;40.36
70304;BME280;57712;48.752;11.348;2022-07-04T11:32:41;97739.59;;;28.93;38.73
70304;BME280;57712;48.752;11.348;2022-07-04T11:35:08;97729.88;;;27.81;39.93
70304;BME280;57712;48.752;11.348;2022-07-04T11:37:35;97726.22;;;28.29;38.71
70304;BME280;57712;48.752;11.348;2022-07-04T11:40:02;97721.16;;;28.92;38.23
70304;BME280;57712;48.752;11.348;2022-07-04T11:43:06;97721.09;;;28.46;38.99
70304;BME280;57712;48.752;11.348;2022-07-04T11:45:53;97717.25;;;27.44;40.10
70304;BME280;57712;48.752;11.348;2022-07-04T11:48:23;97709.50;;;28.12;40.36
70304;BME280;57712;48.752;11.348;2022-07-04T11:50:50;97706.13;;;28.84;38.76
70304;BME280;57712;48.752;11.348;2022-07-04T11:53:18;97713.31;;;29.70;37.97
70304;BME280;57712;48.752;11.348;2022-07-04T11:55:53;97705.06;;;30.66;36.26
70304;BME280;57712;48.752;11.348;2022-07-04T11:58:20;97717.94;;;29.27;37.32
70304;BME280;57712;48.752;11.348;2022-07-04T12:00:48;97701.34;;;30.71;36.89
70304;BME280;57712;48.752;11.348;2022-07-04T12:03:15;97712.81;;;30.66;35.92
70304;BME280;57712;48.752;11.348;2022-07-04T12:05:42;97705.84;;;30.33;36.02
70304;BME280;57712;48.752;11.348;2022-07-04T12:08:10;97703.94;;;30.49;36.13
70304;BME280;57712;48.752;11.348;2022-07-04T12:10:52;97700.81;;;29.78;37.20
70304;BME280;57712;48.752;11.348;2022-07-04T12:13:19;97707.38;;;28.18;38.53
70304;BME280;57712;48.752;11.348;2022-07-04T12:15:48;97702.00;;;29.17;37.74
70304;BME280;57712;48.752;11.348;2022-07-04T12:18:21;97702.28;;;30.19;35.93
70304;BME280;57712;48.752;11.348;2022-07-04T12:20:49;97693.19;;;30.13;36.04
70304;BME280;57712;48.752;11.348;2022-07-04T12:23:18;97702.09;;;29.24;36.56
70304;BME280;57712;48.752;11.348;2022-07-04T12:25:47;97699.31;;;29.64;36.22
70304;BME280;57712;48.752;11.348;2022-07-04T12:28:16;97692.41;;;30.46;36.41
70304;BME280;57712;48.752;11.348;2022-07-04T12:30:51;97690.03;;;30.03;37.13
70304;BME280;57712;48.752;11.348;2022-07-04T12:33:21;97689.38;;;30.44;37.49
70304;BME280;57712;48.752;11.348;2022-07-04T12:35:58;97688.88;;;29.46;36.32
70304;BME280;57712;48.752;11.348;2022-07-04T12:40:59;97667.06;;;28.74;39.40
70304;BME280;57712;48.752;11.348;2022-07-04T12:43:45;97659.28;;;30.13;38.79
70304;BME280;57712;48.752;11.348;2022-07-04T12:46:13;97656.53;;;29.20;38.03
70304;BME280;57712;48.752;11.348;2022-07-04T12:48:41;97655.16;;;28.82;37.53
70304;BME280;57712;48.752;11.348;2022-07-04T12:51:18;97655.31;;;29.69;38.00
70304;BME280;57712;48.752;11.348;2022-07-04T12:53:47;97647.03;;;29.84;35.52
70304;BME280;57712;48.752;11.348;2022-07-04T12:56:35;97648.19;;;30.57;36.77
70304;BME280;57712;48.752;11.348;2022-07-04T12:59:08;97646.72;;;30.42;36.94
70304;BME280;57712;48.752;11.348;2022-07-04T13:01:39;97641.94;;;31.21;37.00
70304;BME280;57712;48.752;11.348;2022-07-04T13:04:06;97640.97;;;30.69;36.25
70304;BME280;57712;48.752;11.348;2022-07-04T13:06:33;97636.66;;;30.96;36.88
70304;BME280;57712;48.752;11.348;2022-07-04T13:09:01;97632.88;;;30.73;35.77
70304;BME280;57712;48.752;11.348;2022-07-04T13:11:30;97629.25;;;30.65;34.80
70304;BME280;57712;48.752;11.348;2022-07-04T13:14:15;97631.16;;;30.28;35.42
70304;BME280;57712;48.752;11.348;2022-07-04T13:16:41;97632.53;;;30.97;39.04
70304;BME280;57712;48.752;11.348;2022-07-04T13:19:08;97624.84;;;30.22;35.23
70304;BME280;57712;48.752;11.348;2022-07-04T13:21:35;97623.34;;;30.84;37.46
70304;BME280;57712;48.752;11.348;2022-07-04T13:24:02;97617.06;;;30.98;35.00